Time;durP1;ratioP1;P1;durP2;ratioP2;P2;SDS_P1;SDS_P2;PMS_P1;PMS_P2;Temp;Humidity;BMP_temperature;BMP_pressure;BME280_temperature;BME280_humidity;BME280_pressure;Samples;Min_cycle;Max_cycle;Signal;HPM_P1;HPM_P2
2022/09/06 00:01:38;;;;;;;6.70;2.33;;;18.10;99.90;;;;;;7362006;32;20166;-58
2022/09/06 00:05:40;;;;;;;7.07;2.33;;;18.10;99.90;;;;;;7360260;32;20220;-58
2022/09/06 00:09:42;;;;;;;9.07;2.30;;;18.00;99.90;;;;;;7362551;32;20168;-60
2022/09/06 00:13:44;;;;;;;3.83;2.47;;;18.00;99.90;;;;;;7364004;32;20557;-58
2022/09/06 00:17:46;;;;;;;2.50;2.20;;;17.90;99.90;;;;;;7363236;32;20107;-58
2022/09/06 00:21:48;;;;;;;6.30;1.90;;;17.90;99.90;;;;;;7370179;32;20263;-58
2022/09/06 00:25:49;;;;;;;6.68;2.40;;;18.10;99.90;;;;;;7367191;32;20186;-58
2022/09/06 00:29:51;;;;;;;3.75;2.25;;;18.60;99.90;;;;;;7366960;32;20110;-58
2022/09/06 00:33:53;;;;;;;5.75;2.83;;;19.00;99.90;;;;;;7367935;32;20237;-58
2022/09/06 00:37:56;;;;;;;6.78;2.25;;;19.20;99.90;;;;;;7368776;32;20145;-58
2022/09/06 00:41:58;;;;;;;5.87;2.50;;;19.40;99.90;;;;;;7367154;32;20130;-58
2022/09/06 00:46:01;;;;;;;3.83;2.30;;;19.50;99.90;;;;;;7368131;32;20232;-58
2022/09/06 00:50:04;;;;;;;4.95;2.28;;;19.60;99.90;;;;;;7364098;32;20133;-60
2022/09/06 00:54:08;;;;;;;9.70;3.30;;;19.70;99.90;;;;;;7365702;32;20138;-58
2022/09/06 00:58:10;;;;;;;8.18;2.60;;;19.70;99.90;;;;;;7368086;32;20175;-58
2022/09/06 01:02:12;;;;;;;7.80;2.85;;;20.00;99.90;;;;;;7370400;32;20582;-58
2022/09/06 01:06:25;;;;;;;7.50;2.65;;;20.00;99.90;;;;;;7366197;32;20198;-59
2022/09/06 01:10:57;;;;;;;9.00;2.60;;;20.10;99.90;;;;;;7366894;32;20133;-58
2022/09/06 01:15:34;;;;;;;11.82;2.12;;;20.20;99.90;;;;;;7363076;32;20209;-59
2022/09/06 01:20:09;;;;;;;6.05;1.90;;;20.40;99.90;;;;;;7364910;32;20107;-58
2022/09/06 01:24:38;;;;;;;7.18;2.10;;;20.30;99.90;;;;;;7376000;32;20324;-59
2022/09/06 01:28:45;;;;;;;11.80;2.15;;;20.20;99.90;;;;;;7362302;32;20223;-58
2022/09/06 01:33:02;;;;;;;12.82;2.30;;;20.10;99.90;;;;;;7361673;32;20156;-59
2022/09/06 01:37:14;;;;;;;9.75;2.70;;;20.00;99.90;;;;;;7364546;32;20141;-59
2022/09/06 01:41:16;;;;;;;8.13;2.87;;;19.80;99.90;;;;;;7363813;32;20135;-59
2022/09/06 01:45:22;;;;;;;10.05;2.87;;;19.50;99.90;;;;;;7366503;32;20516;-58
2022/09/06 01:49:42;;;;;;;9.10;3.03;;;19.20;99.90;;;;;;7364954;32;20552;-58
2022/09/06 01:54:16;;;;;;;7.43;3.22;;;18.90;99.90;;;;;;7367418;32;20145;-58
2022/09/06 01:58:45;;;;;;;9.55;3.22;;;18.70;99.90;;;;;;7369772;32;20557;-58
2022/09/06 02:03:29;;;;;;;8.68;3.30;;;18.50;99.90;;;;;;7359641;32;20278;-58
2022/09/06 02:07:33;;;;;;;10.50;3.50;;;18.30;99.90;;;;;;7365895;32;20240;-59
2022/09/06 02:11:49;;;;;;;7.28;3.42;;;18.10;99.90;;;;;;7364069;32;20787;-58
2022/09/06 02:16:06;;;;;;;7.47;3.47;;;18.00;99.90;;;;;;7366516;32;20194;-59
2022/09/06 02:20:15;;;;;;;8.07;4.43;;;18.10;99.90;;;;;;7361159;32;20186;-58
2022/09/06 02:24:24;;;;;;;7.82;3.97;;;18.00;99.90;;;;;;7363799;32;20123;-58
2022/09/06 02:28:27;;;;;;;6.15;3.92;;;17.80;99.90;;;;;;7362272;32;20187;-58
2022/09/06 02:32:31;;;;;;;6.72;4.20;;;17.80;99.90;;;;;;7359073;32;20115;-58
2022/09/06 02:36:35;;;;;;;10.80;4.95;;;17.70;99.90;;;;;;7366988;32;20190;-59
2022/09/06 02:40:37;;;;;;;6.32;4.40;;;17.70;99.90;;;;;;7369526;32;20236;-58
2022/09/06 02:44:39;;;;;;;10.63;5.37;;;17.60;99.90;;;;;;7370472;32;20173;-58
2022/09/06 02:48:41;;;;;;;8.98;5.15;;;17.60;99.90;;;;;;7365737;32;20974;-58
2022/09/06 02:52:43;;;;;;;8.93;4.53;;;17.60;99.90;;;;;;7369135;32;20312;-58
2022/09/06 02:56:44;;;;;;;14.23;4.40;;;17.60;99.90;;;;;;7365612;32;20198;-58
2022/09/06 03:00:52;;;;;;;6.97;4.22;;;17.50;99.90;;;;;;7364907;32;20100;-58
2022/09/06 03:04:54;;;;;;;9.48;4.93;;;17.50;99.90;;;;;;7363226;32;20100;-58
2022/09/06 03:08:57;;;;;;;8.63;4.62;;;17.50;99.90;;;;;;7365463;32;20087;-58
2022/09/06 03:12:58;;;;;;;6.32;4.45;;;17.50;99.90;;;;;;7360147;32;20190;-58
2022/09/06 03:17:02;;;;;;;13.35;5.45;;;17.50;99.90;;;;;;7362564;32;20189;-59
2022/09/06 03:21:04;;;;;;;9.40;5.57;;;17.40;99.90;;;;;;7364917;32;20144;-58
2022/09/06 03:25:07;;;;;;;7.25;5.57;;;17.30;99.90;;;;;;7362826;32;20117;-58
2022/09/06 03:29:09;;;;;;;6.70;5.15;;;17.40;99.90;;;;;;7360958;32;20119;-58
2022/09/06 03:33:10;;;;;;;9.80;5.28;;;17.30;99.90;;;;;;7366691;32;20482;-58
2022/09/06 03:37:12;;;;;;;10.93;5.37;;;17.30;99.90;;;;;;7364280;32;20557;-58
2022/09/06 03:41:14;;;;;;;11.43;5.72;;;17.30;99.90;;;;;;7360044;32;20729;-58
2022/09/06 03:45:16;;;;;;;9.98;5.62;;;17.30;99.90;;;;;;7363520;32;20096;-58
2022/09/06 03:49:18;;;;;;;7.65;5.30;;;17.30;99.90;;;;;;7361932;32;20117;-58
2022/09/06 03:53:21;;;;;;;7.95;5.15;;;17.30;99.90;;;;;;7364541;32;20127;-58
2022/09/06 03:57:23;;;;;;;7.37;5.10;;;17.30;99.90;;;;;;7360792;32;20155;-58
2022/09/06 04:01:25;;;;;;;11.30;5.60;;;17.30;99.90;;;;;;7368755;32;20257;-58
2022/09/06 04:05:27;;;;;;;8.15;5.00;;;17.30;99.90;;;;;;7367636;32;20206;-59
2022/09/06 04:09:29;;;;;;;8.38;4.82;;;17.30;99.90;;;;;;7364903;32;20293;-58
2022/09/06 04:13:32;;;;;;;9.13;4.90;;;17.30;99.90;;;;;;7362552;32;20095;-58
2022/09/06 04:17:34;;;;;;;9.63;5.12;;;17.30;99.90;;;;;;7359107;32;20115;-58
2022/09/06 04:21:35;;;;;;;9.00;5.40;;;17.30;99.90;;;;;;7358439;32;20475;-59
2022/09/06 04:25:37;;;;;;;7.30;5.03;;;17.20;99.90;;;;;;7361437;32;20146;-58
2022/09/06 04:29:39;;;;;;;8.77;5.65;;;17.20;99.90;;;;;;7364844;32;20115;-59
2022/09/06 04:33:41;;;;;;;9.57;5.35;;;17.10;99.90;;;;;;7360295;32;20318;-58
2022/09/06 04:37:43;;;;;;;8.05;5.55;;;17.10;99.90;;;;;;7362606;32;20533;-59
2022/09/06 04:41:44;;;;;;;11.12;5.43;;;17.10;99.90;;;;;;7360343;32;20577;-59
2022/09/06 04:45:46;;;;;;;10.32;5.60;;;17.00;99.90;;;;;;7363107;32;20222;-59
2022/09/06 04:49:48;;;;;;;9.40;5.90;;;16.90;99.90;;;;;;7362627;32;20780;-59
2022/09/06 04:53:50;;;;;;;8.98;5.22;;;16.90;99.90;;;;;;7364704;32;20095;-58
2022/09/06 04:57:52;;;;;;;7.50;5.68;;;16.70;99.90;;;;;;7360695;32;20306;-66
2022/09/06 05:01:53;;;;;;;12.02;10.65;;;16.70;99.90;;;;;;7363028;32;20219;-67
2022/09/06 05:06:08;;;;;;;10.25;5.82;;;16.60;99.90;;;;;;7360736;32;20256;-66
2022/09/06 05:10:10;;;;;;;16.73;12.90;;;16.50;99.90;;;;;;7360194;32;20162;-67
2022/09/06 05:14:12;;;;;;;10.65;7.00;;;16.40;99.90;;;;;;7362436;32;20194;-66
2022/09/06 05:18:13;;;;;;;8.30;6.15;;;16.30;99.90;;;;;;7361084;32;20182;-67
2022/09/06 05:22:17;;;;;;;8.80;6.18;;;16.20;99.90;;;;;;7357716;32;20111;-66
2022/09/06 05:26:18;;;;;;;16.35;6.05;;;16.20;99.90;;;;;;7362756;32;20207;-66
2022/09/06 05:30:20;;;;;;;5.85;5.10;;;16.10;99.90;;;;;;7364464;32;21060;-67
2022/09/06 05:34:22;;;;;;;12.07;5.57;;;16.10;99.90;;;;;;7363824;32;20200;-67
2022/09/06 05:38:24;;;;;;;13.18;5.50;;;16.10;99.90;;;;;;7362857;32;22390;-69
2022/09/06 05:42:30;;;;;;;9.45;6.12;;;16.00;99.90;;;;;;7364916;32;20174;-63
2022/09/06 05:46:31;;;;;;;10.55;8.45;;;16.00;99.90;;;;;;7369849;32;20202;-65
2022/09/06 05:50:33;;;;;;;9.55;6.07;;;15.90;99.90;;;;;;7364334;32;20211;-59
2022/09/06 05:54:35;;;;;;;8.95;5.57;;;15.90;99.90;;;;;;7359467;32;20417;-64
2022/09/06 05:58:37;;;;;;;14.43;11.02;;;16.00;99.90;;;;;;7374501;32;20119;-64
2022/09/06 06:02:48;;;;;;;9.85;7.37;;;16.00;99.90;;;;;;7360094;32;20115;-63
2022/09/06 06:06:50;;;;;;;10.20;7.50;;;16.00;99.90;;;;;;7364281;32;20119;-63
2022/09/06 06:10:51;;;;;;;13.52;7.47;;;16.00;99.90;;;;;;7359051;32;20222;-63
2022/09/06 06:14:53;;;;;;;10.55;7.00;;;16.10;99.90;;;;;;7359946;32;20254;-63
2022/09/06 06:18:55;;;;;;;12.52;8.50;;;16.10;99.90;;;;;;7356860;32;20403;-63
2022/09/06 06:22:57;;;;;;;12.60;7.37;;;16.20;99.90;;;;;;7356894;32;20189;-63
2022/09/06 06:26:58;;;;;;;12.18;7.62;;;16.30;99.90;;;;;;7359951;32;20115;-63
2022/09/06 06:31:04;;;;;;;14.00;7.72;;;16.40;99.90;;;;;;7357453;32;20183;-62
2022/09/06 06:35:08;;;;;;;11.93;8.00;;;16.50;99.90;;;;;;7353836;32;20654;-63
2022/09/06 06:39:10;;;;;;;11.52;8.57;;;16.60;99.90;;;;;;7359662;32;20594;-62
2022/09/06 06:43:11;;;;;;;14.30;7.57;;;16.70;99.90;;;;;;7355092;32;20178;-63
2022/09/06 06:47:13;;;;;;;8.27;6.93;;;16.70;99.90;;;;;;7354478;32;20647;-63
2022/09/06 06:51:17;;;;;;;9.00;6.40;;;16.90;99.90;;;;;;7354078;32;20230;-64
2022/09/06 06:55:19;;;;;;;9.85;6.47;;;17.00;99.90;;;;;;7357854;32;20126;-64
2022/09/06 06:59:21;;;;;;;12.80;6.72;;;17.00;99.90;;;;;;7359202;32;20216;-63
2022/09/06 07:03:22;;;;;;;9.63;6.28;;;17.20;99.90;;;;;;7353420;32;20241;-63
2022/09/06 07:07:24;;;;;;;9.50;5.95;;;17.40;99.90;;;;;;7352325;32;20261;-62
2022/09/06 07:11:42;;;;;;;;;;;17.60;99.90;;;;;;7355618;32;20250;-63
2022/09/06 07:15:43;;;;;;;10.60;5.15;;;17.60;99.90;;;;;;7356422;32;20481;-63
2022/09/06 07:19:45;;;;;;;8.13;5.28;;;17.80;99.90;;;;;;7362127;32;20144;-64
2022/09/06 07:24:07;;;;;;;8.13;4.60;;;17.90;99.90;;;;;;7357469;32;20092;-64
2022/09/06 07:28:10;;;;;;;10.30;4.47;;;18.10;99.90;;;;;;7358869;32;20238;-64
2022/09/06 07:32:12;;;;;;;7.75;4.60;;;18.20;99.90;;;;;;7362349;32;20404;-64
2022/09/06 07:36:14;;;;;;;4.40;3.42;;;18.40;99.90;;;;;;7367744;32;20483;-64
2022/09/06 07:40:15;;;;;;;4.90;3.47;;;18.60;99.90;;;;;;7356066;32;20117;-64
2022/09/06 07:44:17;;;;;;;3.72;2.95;;;18.70;99.90;;;;;;7359445;32;20825;-64
2022/09/06 07:48:19;;;;;;;5.70;3.10;;;18.80;99.90;;;;;;7360573;32;20186;-64
2022/09/06 07:52:25;;;;;;;4.65;3.12;;;19.00;99.90;;;;;;7358591;32;20099;-64
2022/09/06 07:56:47;;;;;;;6.28;2.60;;;19.10;99.90;;;;;;7363780;32;20475;-64
2022/09/06 08:00:48;;;;;;;5.18;2.12;;;19.30;99.90;;;;;;7358429;32;20104;-63
2022/09/06 08:04:50;;;;;;;8.13;2.50;;;19.50;99.90;;;;;;7358425;32;20136;-63
2022/09/06 08:08:53;;;;;;;6.15;2.12;;;19.80;99.90;;;;;;7361416;32;20221;-64
2022/09/06 08:13:00;;;;;;;6.40;2.55;;;20.00;99.90;;;;;;7355968;32;20170;-64
2022/09/06 08:17:02;;;;;;;9.93;2.37;;;20.10;99.90;;;;;;7355643;32;20137;-64
2022/09/06 08:21:12;;;;;;;7.28;2.15;;;20.60;99.90;;;;;;7358710;32;20118;-64
2022/09/06 08:25:14;;;;;;;6.43;1.98;;;20.80;99.90;;;;;;7355765;32;20104;-64
2022/09/06 08:29:16;;;;;;;4.97;1.70;;;21.00;99.90;;;;;;7357000;32;20122;-64
2022/09/06 08:33:20;;;;;;;4.82;1.90;;;21.60;99.90;;;;;;7356240;32;20116;-64
2022/09/06 08:37:22;;;;;;;3.15;1.80;;;21.60;99.90;;;;;;7362337;32;20205;-64
2022/09/06 08:41:50;;;;;;;5.15;1.58;;;21.70;99.90;;;;;;7364062;32;20103;-64
2022/09/06 08:45:56;;;;;;;4.18;1.80;;;21.70;99.90;;;;;;7361956;32;20208;-63
2022/09/06 08:50:04;;;;;;;6.45;1.42;;;22.40;99.90;;;;;;7364978;32;20118;-66
2022/09/06 08:54:30;;;;;;;3.08;1.37;;;22.50;99.90;;;;;;7364186;32;20618;-67
2022/09/06 08:58:58;;;;;;;4.18;1.50;;;23.10;99.90;;;;;;7363126;32;20574;-65
2022/09/06 09:03:13;;;;;;;3.58;1.20;;;23.10;99.90;;;;;;7368366;32;20103;-65
2022/09/06 09:07:23;;;;;;;3.35;1.40;;;23.00;99.90;;;;;;7364329;32;20134;-66
2022/09/06 09:11:25;;;;;;;4.18;1.25;;;23.30;99.90;;;;;;7362045;32;20139;-66
2022/09/06 09:15:27;;;;;;;1.42;1.17;;;23.80;99.90;;;;;;7361742;32;20111;-68
2022/09/06 09:19:32;;;;;;;3.53;1.10;;;24.30;99.90;;;;;;7362020;32;20485;-65
2022/09/06 09:23:34;;;;;;;2.30;1.02;;;25.20;99.90;;;;;;7360086;32;20246;-67
2022/09/06 09:27:38;;;;;;;3.72;1.30;;;25.50;99.90;;;;;;7358766;32;20160;-65
2022/09/06 09:31:40;;;;;;;3.75;1.00;;;25.90;99.90;;;;;;7365878;32;20490;-67
2022/09/06 09:35:42;;;;;;;2.62;1.05;;;26.50;99.90;;;;;;7365279;32;20158;-57
2022/09/06 09:39:43;;;;;;;3.90;0.90;;;27.00;99.90;;;;;;7361909;32;20139;-57
2022/09/06 09:43:57;;;;;;;2.70;0.95;;;27.30;99.90;;;;;;7361700;32;20178;-57
2022/09/06 09:48:25;;;;;;;3.75;0.90;;;27.80;99.90;;;;;;7364059;32;20214;-69
2022/09/06 09:52:30;;;;;;;3.97;0.98;;;28.60;99.90;;;;;;7359258;32;20139;-69
2022/09/06 09:56:49;;;;;;;5.53;1.17;;;28.90;99.90;;;;;;7367834;32;20127;-69
2022/09/06 10:01:10;;;;;;;4.87;0.90;;;29.60;99.80;;;;;;7365026;32;20527;-71
2022/09/06 10:05:12;;;;;;;1.40;0.80;;;30.10;97.20;;;;;;7366514;32;20233;-70
2022/09/06 10:09:17;;;;;;;5.47;1.20;;;30.50;97.20;;;;;;7362078;32;20124;-69
2022/09/06 10:13:22;;;;;;;4.80;0.98;;;31.10;94.00;;;;;;7365282;32;20212;-70
2022/09/06 10:17:35;;;;;;;1.90;0.95;;;31.30;90.40;;;;;;7367271;32;20126;-68
2022/09/06 10:21:37;;;;;;;2.70;0.90;;;31.20;92.20;;;;;;7363224;32;20126;-69
2022/09/06 10:25:45;;;;;;;5.10;0.90;;;31.30;88.40;;;;;;7363107;32;20192;-68
2022/09/06 10:29:57;;;;;;;6.55;0.75;;;31.30;85.90;;;;;;7358184;32;20261;-68
2022/09/06 10:34:04;;;;;;;3.08;0.90;;;31.30;89.80;;;;;;7356891;32;20123;-67
2022/09/06 10:38:15;;;;;;;3.95;0.75;;;31.20;85.50;;;;;;7360657;32;20176;-65
2022/09/06 10:42:30;;;;;;;2.08;0.80;;;31.10;88.20;;;;;;7357917;32;20175;-64
2022/09/06 10:46:33;;;;;;;4.18;1.00;;;30.80;84.30;;;;;;7358745;32;20765;-66
2022/09/06 10:50:53;;;;;;;3.28;0.80;;;30.70;86.50;;;;;;7357777;32;20246;-68
2022/09/06 10:55:02;;;;;;;6.00;1.15;;;30.40;86.80;;;;;;7362357;32;20478;-67
2022/09/06 10:59:09;;;;;;;3.33;1.10;;;30.10;83.80;;;;;;7359324;32;20802;-67
2022/09/06 11:03:37;;;;;;;2.87;1.00;;;29.90;87.70;;;;;;7361543;32;20217;-67
2022/09/06 11:08:01;;;;;;;2.28;0.70;;;29.60;84.80;;;;;;7364486;32;20115;-67
2022/09/06 11:12:42;;;;;;;3.47;0.95;;;29.60;88.70;;;;;;7361327;32;20210;-67
2022/09/06 11:16:54;;;;;;;2.90;1.12;;;29.40;85.10;;;;;;7360844;32;20194;-67
2022/09/06 11:21:29;;;;;;;3.87;1.30;;;29.30;87.00;;;;;;7355483;32;20216;-68
2022/09/06 11:25:45;;;;;;;2.80;0.98;;;29.10;86.00;;;;;;7360099;32;20492;-69
2022/09/06 11:29:55;;;;;;;3.28;1.20;;;29.50;87.20;;;;;;7358642;32;20175;-68
2022/09/06 11:34:19;;;;;;;4.55;1.20;;;29.60;85.60;;;;;;7367165;32;20137;-68
2022/09/06 11:38:26;;;;;;;6.53;1.08;;;29.40;88.20;;;;;;7360909;32;20526;-68
2022/09/06 11:42:43;;;;;;;5.00;1.10;;;29.40;86.00;;;;;;7360691;32;20561;-68
2022/09/06 11:46:45;;;;;;;3.65;1.42;;;29.40;85.40;;;;;;7358810;32;20216;-68
2022/09/06 11:50:52;;;;;;;5.85;1.45;;;29.20;85.90;;;;;;7354226;32;20163;-60
2022/09/06 11:54:54;;;;;;;3.40;1.10;;;29.20;89.10;;;;;;7358823;32;20133;-71
2022/09/06 11:59:17;;;;;;;5.25;1.33;;;29.50;88.30;;;;;;7362258;32;20127;-70
2022/09/06 12:03:41;;;;;;;5.43;1.30;;;29.50;87.30;;;;;;7358632;32;20139;-68
2022/09/06 12:08:09;;;;;;;4.37;1.25;;;29.80;84.80;;;;;;7357405;32;20119;-70
2022/09/06 12:12:32;;;;;;;3.03;1.08;;;30.00;86.50;;;;;;7359932;32;20135;-69
2022/09/06 12:16:56;;;;;;;3.90;1.20;;;30.10;87.40;;;;;;7363627;32;20111;-69
2022/09/06 12:21:00;;;;;;;6.18;1.33;;;30.10;86.70;;;;;;7367655;32;20119;-68
2022/09/06 12:25:33;;;;;;;2.33;1.30;;;30.10;85.80;;;;;;7363402;32;20524;-68
2022/09/06 12:29:35;;;;;;;6.03;1.50;;;30.10;87.70;;;;;;7371009;32;20213;-68
2022/09/06 12:33:37;;;;;;;3.80;1.23;;;29.80;87.00;;;;;;7370021;32;20241;-69
2022/09/06 12:37:59;;;;;;;4.85;1.58;;;29.90;90.10;;;;;;7367496;32;20130;-69
2022/09/06 12:42:01;;;;;;;3.72;1.37;;;30.20;87.60;;;;;;7367806;32;20229;-69
2022/09/06 12:46:06;;;;;;;6.22;1.73;;;30.10;88.10;;;;;;7367503;32;20217;-68
2022/09/06 12:50:22;;;;;;;4.70;1.45;;;30.10;87.60;;;;;;7369383;32;20141;-69
2022/09/06 12:54:27;;;;;;;7.28;1.62;;;29.90;87.30;;;;;;7364322;32;20115;-68
2022/09/06 12:58:29;;;;;;;9.70;1.58;;;29.90;87.00;;;;;;7368232;32;20280;-68
2022/09/06 13:02:44;;;;;;;5.30;1.40;;;29.70;89.70;;;;;;7369877;32;20129;-69
2022/09/06 13:06:47;;;;;;;5.32;1.52;;;29.80;89.00;;;;;;7364337;32;20178;-67
2022/09/06 13:10:49;;;;;;;5.87;1.45;;;29.80;88.60;;;;;;7364275;32;20210;-67
2022/09/06 13:14:53;;;;;;;2.95;1.08;;;29.90;84.00;;;;;;7367746;32;20107;-67
2022/09/06 13:19:28;;;;;;;5.45;0.98;;;29.90;83.60;;;;;;7364141;32;20694;-67
2022/09/06 13:23:40;;;;;;;4.50;1.02;;;29.90;84.20;;;;;;7365793;32;20794;-66
2022/09/06 13:27:45;;;;;;;1.77;0.80;;;29.90;81.20;;;;;;7357519;32;20198;-66
2022/09/06 13:31:49;;;;;;;3.83;1.00;;;30.00;80.00;;;;;;7361364;32;20337;-67
2022/09/06 13:36:07;;;;;;;5.22;1.10;;;29.90;80.50;;;;;;7361406;32;20186;-66
2022/09/06 13:40:41;;;;;;;3.42;1.00;;;29.80;81.40;;;;;;7358501;32;20187;-67
2022/09/06 13:45:30;;;;;;;4.43;0.90;;;29.80;81.70;;;;;;7358152;32;20197;-67
2022/09/06 13:49:32;;;;;;;4.35;1.10;;;30.00;78.50;;;;;;7359005;32;20123;-67
2022/09/06 13:53:35;;;;;;;4.43;1.20;;;29.90;80.70;;;;;;7363692;32;20111;-68
2022/09/06 13:57:36;;;;;;;4.12;1.15;;;30.10;79.00;;;;;;7361932;32;20546;-66
2022/09/06 14:01:40;;;;;;;3.92;0.98;;;30.20;81.30;;;;;;7359950;32;20528;-68
2022/09/06 14:05:44;;;;;;;4.07;1.23;;;30.30;78.10;;;;;;7355147;32;20362;-68
2022/09/06 14:09:46;;;;;;;5.00;1.25;;;30.50;78.90;;;;;;7356142;32;20222;-67
2022/09/06 14:13:48;;;;;;;3.65;1.00;;;30.20;81.90;;;;;;7363872;32;20257;-68
2022/09/06 14:17:51;;;;;;;3.37;1.20;;;30.50;71.30;;;;;;7361240;32;20213;-68
2022/09/06 14:21:52;;;;;;;1.70;1.15;;;30.50;72.90;;;;;;7347732;32;20819;-68
2022/09/06 14:25:55;;;;;;;2.10;0.65;;;30.50;71.20;;;;;;7357484;32;20707;-67
2022/09/06 14:29:57;;;;;;;3.80;1.08;;;30.60;67.80;;;;;;7351129;32;20195;-67
2022/09/06 14:34:00;;;;;;;3.33;1.10;;;30.70;65.40;;;;;;7342664;32;20205;-66
2022/09/06 14:38:02;;;;;;;2.22;1.05;;;30.90;65.20;;;;;;7356715;32;20194;-67
2022/09/06 14:42:04;;;;;;;2.20;0.80;;;30.60;68.00;;;;;;7349000;32;20190;-68
2022/09/06 14:46:08;;;;;;;1.70;0.80;;;30.50;65.90;;;;;;7357603;32;20680;-66
2022/09/06 14:50:09;;;;;;;3.30;1.02;;;30.30;68.30;;;;;;7357677;32;20265;-66
2022/09/06 14:54:20;;;;;;;4.43;1.12;;;30.10;66.50;;;;;;7352570;32;20310;-66
2022/09/06 14:58:30;;;;;;;1.98;0.80;;;29.90;67.60;;;;;;7356467;32;20478;-68
2022/09/06 15:02:33;;;;;;;5.18;1.10;;;29.60;66.30;;;;;;7352466;32;20242;-69
2022/09/06 15:06:38;;;;;;;2.15;0.80;;;29.60;66.10;;;;;;7360540;32;20145;-68
2022/09/06 15:10:41;;;;;;;3.75;0.70;;;29.60;63.80;;;;;;7360865;32;20503;-68
2022/09/06 15:14:43;;;;;;;4.03;0.88;;;29.70;61.70;;;;;;7362886;32;20474;-68
2022/09/06 15:18:45;;;;;;;2.17;0.60;;;29.60;63.90;;;;;;7361524;32;20203;-67
2022/09/06 15:22:48;;;;;;;4.00;0.93;;;29.50;59.80;;;;;;7358059;32;20234;-67
2022/09/06 15:27:09;;;;;;;4.62;3.20;;;29.40;61.20;;;;;;7359199;32;20309;-66
2022/09/06 15:31:15;;;;;;;2.10;0.75;;;29.20;60.50;;;;;;7356685;32;20644;-67
2022/09/06 15:35:16;;;;;;;2.25;0.70;;;29.10;59.70;;;;;;7354135;32;20633;-67
2022/09/06 15:39:18;;;;;;;1.30;0.73;;;28.90;60.00;;;;;;7357147;32;20111;-67
2022/09/06 15:43:20;;;;;;;2.62;0.70;;;28.80;60.80;;;;;;7353503;32;20198;-68
2022/09/06 15:47:22;;;;;;;1.50;0.60;;;28.70;59.10;;;;;;7353858;32;20270;-66
2022/09/06 15:51:24;;;;;;;4.43;0.80;;;28.50;60.30;;;;;;7352325;32;20167;-68
2022/09/06 15:59:46;;;;;;;5.00;1.35;;;28.60;59.10;;;;;;7350005;32;20265;-67
2022/09/06 16:03:51;;;;;;;3.90;1.00;;;28.70;60.60;;;;;;7357647;32;20221;-67
2022/09/06 16:07:53;;;;;;;2.72;0.65;;;28.60;60.10;;;;;;7359848;32;20948;-67
2022/09/06 16:11:55;;;;;;;6.53;1.10;;;28.40;59.60;;;;;;7357273;32;20236;-67
2022/09/06 16:15:58;;;;;;;5.43;1.50;;;28.30;61.30;;;;;;7357675;32;20217;-67
2022/09/06 16:20:00;;;;;;;2.83;1.60;;;28.20;62.20;;;;;;7349323;32;20731;-69
2022/09/06 16:24:05;;;;;;;3.83;0.90;;;28.10;61.60;;;;;;7357600;32;20616;-68
2022/09/06 16:28:06;;;;;;;6.45;1.00;;;28.00;60.90;;;;;;7352509;32;20134;-68
2022/09/06 16:32:08;;;;;;;1.55;0.70;;;27.90;62.30;;;;;;7358420;32;20501;-69
2022/09/06 16:36:12;;;;;;;3.35;0.90;;;27.80;63.50;;;;;;7359144;32;20186;-67
2022/09/06 16:40:14;;;;;;;2.75;0.90;;;27.80;62.10;;;;;;7352392;32;20404;-74
2022/09/06 16:44:17;;;;;;;3.33;1.08;;;27.60;62.30;;;;;;7357872;32;20848;-73
2022/09/06 16:48:19;;;;;;;2.72;0.88;;;27.50;61.40;;;;;;7347999;32;20115;-76
2022/09/06 16:52:21;;;;;;;2.58;0.75;;;27.40;62.30;;;;;;7358556;32;20115;-75
2022/09/06 16:56:27;;;;;;;2.65;0.80;;;27.20;64.00;;;;;;7341244;32;20222;-59
2022/09/06 17:00:28;;;;;;;3.78;1.05;;;27.10;65.40;;;;;;7370297;32;20217;-57
2022/09/06 17:04:30;;;;;;;14.50;13.00;;;26.90;66.90;;;;;;7372859;32;20611;-67
2022/09/06 17:08:33;;;;;;;6.35;2.65;;;26.80;71.70;;;;;;7364046;32;20300;-66
2022/09/06 17:12:35;;;;;;;5.07;2.28;;;26.60;71.70;;;;;;7364587;32;20499;-66
2022/09/06 17:21:06;;;;;;;2.30;0.80;;;26.10;78.00;;;;;;7372594;32;20110;-65
2022/09/06 17:25:08;;;;;;;7.62;1.00;;;25.90;79.70;;;;;;7362938;32;20191;-66
2022/09/06 17:29:09;;;;;;;3.35;1.00;;;25.60;85.50;;;;;;7365172;32;20831;-57
2022/09/06 17:33:12;;;;;;;7.05;1.20;;;25.20;87.00;;;;;;7362957;32;20214;-57
2022/09/06 17:37:14;;;;;;;7.07;3.28;;;25.00;90.40;;;;;;7363974;32;20753;-66
2022/09/06 17:41:23;;;;;;;13.57;7.22;;;24.70;90.80;;;;;;7363110;32;20611;-69
2022/09/06 17:45:25;;;;;;;4.05;2.25;;;24.50;92.10;;;;;;7362850;32;20165;-68
2022/09/06 17:49:27;;;;;;;9.75;1.52;;;24.30;94.40;;;;;;7363965;32;20135;-68
2022/09/06 17:53:29;;;;;;;6.20;1.00;;;24.00;95.90;;;;;;7368304;32;20873;-67
2022/09/06 17:57:31;;;;;;;4.62;1.23;;;23.80;97.20;;;;;;7367020;32;20752;-67
2022/09/06 18:01:35;;;;;;;8.07;1.23;;;23.70;98.60;;;;;;7360742;32;20907;-69
2022/09/06 18:05:38;;;;;;;6.53;1.17;;;23.50;99.20;;;;;;7354735;32;20228;-68
2022/09/06 18:09:40;;;;;;;8.50;1.70;;;23.40;99.40;;;;;;7355562;32;20170;-69
2022/09/06 18:13:43;;;;;;;12.90;1.50;;;23.20;99.90;;;;;;7357113;32;20108;-69
2022/09/06 18:17:45;;;;;;;11.65;1.70;;;23.00;99.90;;;;;;7353765;32;20631;-71
2022/09/06 18:21:47;;;;;;;4.03;1.35;;;22.70;99.90;;;;;;7357717;32;20098;-63
2022/09/06 18:26:04;;;;;;;5.78;1.33;;;22.60;99.90;;;;;;7367267;32;20641;-63
2022/09/06 18:30:07;;;;;;;5.12;1.10;;;22.30;99.90;;;;;;7364268;32;20583;-63
2022/09/06 18:34:15;;;;;;;5.87;1.33;;;22.20;99.90;;;;;;7364440;32;20216;-63
2022/09/06 18:38:17;;;;;;;9.52;1.95;;;21.90;99.90;;;;;;7361912;32;20107;-63
2022/09/06 18:42:19;;;;;;;13.20;5.57;;;21.70;99.90;;;;;;7366373;32;20206;-65
2022/09/06 18:46:21;;;;;;;9.32;2.00;;;21.50;99.90;;;;;;7363242;32;20605;-62
2022/09/06 18:50:23;;;;;;;8.60;1.52;;;21.30;99.90;;;;;;7360593;32;20291;-62
2022/09/06 18:54:25;;;;;;;4.70;1.65;;;21.10;99.90;;;;;;7360390;32;20134;-63
2022/09/06 18:58:27;;;;;;;5.60;1.80;;;20.90;99.90;;;;;;7366048;32;20597;-63
2022/09/06 19:02:28;;;;;;;8.63;1.80;;;20.80;99.90;;;;;;7360269;32;20110;-64
2022/09/06 19:06:32;;;;;;;6.37;1.95;;;20.60;99.90;;;;;;7366053;32;20115;-61
2022/09/06 19:10:33;;;;;;;10.95;1.60;;;20.50;99.90;;;;;;7361452;32;20112;-61
2022/09/06 19:14:35;;;;;;;5.97;1.50;;;20.40;99.90;;;;;;7358970;32;20323;-63
2022/09/06 19:18:38;;;;;;;7.55;1.37;;;20.30;99.90;;;;;;7356994;32;20259;-64
2022/09/06 19:22:40;;;;;;;4.07;1.60;;;20.20;99.90;;;;;;7359534;32;20186;-64
2022/09/06 19:26:43;;;;;;;7.07;1.50;;;20.10;99.90;;;;;;7364554;32;20195;-64
2022/09/06 19:30:44;;;;;;;8.07;1.65;;;20.10;99.90;;;;;;7354406;32;20179;-63
2022/09/06 19:34:47;;;;;;;3.75;1.80;;;20.00;99.90;;;;;;7364557;32;20111;-63
2022/09/06 19:38:54;;;;;;;5.90;1.30;;;20.00;99.90;;;;;;7364861;32;20111;-63
2022/09/06 19:43:05;;;;;;;4.73;1.50;;;20.10;99.90;;;;;;7361381;32;20102;-64
2022/09/06 19:47:07;;;;;;;3.80;1.75;;;20.00;99.90;;;;;;7363287;32;20614;-64
2022/09/06 19:51:09;;;;;;;6.57;1.67;;;20.00;99.90;;;;;;7359280;32;20209;-63
2022/09/06 19:55:11;;;;;;;4.30;1.83;;;20.00;99.90;;;;;;7358850;32;20297;-63
2022/09/06 19:59:14;;;;;;;2.95;1.40;;;20.00;99.90;;;;;;7357005;32;20212;-63
2022/09/06 20:03:16;;;;;;;3.53;1.27;;;20.00;99.90;;;;;;7357233;32;20587;-62
2022/09/06 20:07:17;;;;;;;6.37;1.77;;;20.00;99.90;;;;;;7363492;32;20223;-63
2022/09/06 20:11:21;;;;;;;8.70;1.50;;;20.10;99.90;;;;;;7353005;32;20212;-61
2022/09/06 20:15:23;;;;;;;5.90;3.97;;;20.10;99.90;;;;;;7351397;32;20301;-63
2022/09/06 20:19:24;;;;;;;5.95;2.15;;;20.10;99.90;;;;;;7353395;32;20202;-63
2022/09/06 20:23:28;;;;;;;2.87;1.30;;;20.10;99.90;;;;;;7350668;32;20697;-63
2022/09/06 20:27:30;;;;;;;4.20;1.67;;;20.10;99.90;;;;;;7340811;32;22153;-63
2022/09/06 20:31:33;;;;;;;10.95;1.52;;;20.00;99.90;;;;;;7360111;32;20702;-63
2022/09/06 20:35:35;;;;;;;5.80;1.30;;;19.90;99.90;;;;;;7361066;32;20190;-63
2022/09/06 20:39:37;;;;;;;9.65;1.60;;;19.90;99.90;;;;;;7354426;32;20254;-63
2022/09/06 20:43:40;;;;;;;4.95;1.90;;;19.80;99.90;;;;;;7365886;32;20558;-63
2022/09/06 20:47:42;;;;;;;7.25;1.50;;;19.80;99.90;;;;;;7350104;32;20245;-63
2022/09/06 20:51:44;;;;;;;5.72;1.60;;;19.70;99.90;;;;;;7359716;32;20729;-62
2022/09/06 20:55:58;;;;;;;5.70;2.00;;;19.70;99.90;;;;;;7363813;32;20521;-61
2022/09/06 20:59:59;;;;;;;4.65;1.67;;;19.80;99.90;;;;;;7370515;32;20447;-61
2022/09/06 21:04:04;;;;;;;4.30;1.45;;;19.90;99.90;;;;;;7364151;32;20124;-61
2022/09/06 21:08:05;;;;;;;3.50;1.37;;;20.20;99.90;;;;;;7365957;32;20175;-61
2022/09/06 21:12:07;;;;;;;3.08;1.40;;;20.40;99.90;;;;;;7366474;32;20182;-61
2022/09/06 21:16:09;;;;;;;2.90;1.20;;;20.60;99.90;;;;;;7362083;32;20116;-61
2022/09/06 21:20:11;;;;;;;3.78;1.20;;;21.20;99.90;;;;;;7375286;32;20210;-61
2022/09/06 21:24:13;;;;;;;3.33;1.25;;;21.40;99.90;;;;;;7364769;32;20208;-61
2022/09/06 21:28:15;;;;;;;2.47;1.30;;;21.70;99.90;;;;;;7369497;32;20115;-61